Weather reports worldwide

Advertisment
Uccle, Belgium (6447): temperature & dewpoint: 29.07.2020 01:00:00 - 04.08.2020 01:00:00 (CEST)Uccle, Belgium (6447): wind speed & gusts: 29.07.2020 01:00:00 - 04.08.2020 01:00:00 (CEST)Uccle, Belgium (6447): wind direction: 29.07.2020 01:00:00 - 04.08.2020 01:00:00 (CEST)Uccle, Belgium (6447): reduced air pressure: 29.07.2020 01:00:00 - 04.08.2020 01:00:00 (CEST)Uccle, Belgium (6447): sunshine duration: 29.07.2020 01:00:00 - 04.08.2020 01:00:00 (CEST)Uccle, Belgium (6447): precipitation: 29.07.2020 01:00:00 - 04.08.2020 01:00:00 (CEST)
Date & Time tt [°C] td [°C] ff [km/h] ff [kn] fx [km/h] fx [kn] dd ppp [hPa] sd [min] rr [mm]
04.08.2020 01:00:00 15,3 11,9 9 5 19 11 NNW 1016,9 0 0,0
04.08.2020 00:00:00 16,0 11,7 11 6 29 16 N 1016,1 0 0,0
03.08.2020 23:00:00 16,4 11,3 12 7 28 15 NNW 1015,6 0 0,0
03.08.2020 22:00:00 17,0 12,4 13 7 23 13 NNW 1015,0 0 0,0
03.08.2020 21:00:00 17,1 12,2 10 6 24 13 NNW 1014,4 0 0,0
03.08.2020 20:00:00 17,3 10,7 14 8 24 13 NNW 1014,2 0 0,0
03.08.2020 19:00:00 17,5 10,4 18 10 34 18 NW 1013,9 0 0,0
03.08.2020 18:00:00 18,0 9,7 17 9 39 21 NNW 1013,7 24 0,0
03.08.2020 17:00:00 18,9 10,3 15 8 44 24 NNW 1013,6 11 0,0
03.08.2020 16:00:00 20,4 9,9 22 12 39 21 NNW 1013,1 17 0,0
03.08.2020 15:00:00 20,8 7,1 6 3 17 9 NW 1013,0 7 0,0
03.08.2020 14:00:00 21,0 8,4 11 6 17 9 NW 1013,4 47 0,0
03.08.2020 13:00:00 19,7 8,8 8 4 14 8 NW 1013,8 24 0,0
03.08.2020 12:00:00 18,9 10,7 4 2 16 9 W 1014,3 56 0,0
03.08.2020 11:00:00 17,5 11,5 5 3 14 8 WSW 1014,6 12 0,0
03.08.2020 10:00:00 17,0 11,4 8 5 13 7 S 1014,7 28 0,0
03.08.2020 09:00:00 14,6 10,9 7 4 11 6 S 1015,2 0 0,0
03.08.2020 08:00:00 13,9 10,6 4 2 7 4 S 1014,9 0 0,0
03.08.2020 07:00:00 12,9 10,1 4 2 9 5 S 1015,0 0 0,0
03.08.2020 06:00:00 12,6 9,9 6 3 10 5 WSW 1015,2 0 0,0
03.08.2020 05:00:00 12,1 9,7 4 2 6 3 SSW 1015,4 0 0,0
03.08.2020 04:00:00 12,1 9,5 4 2 6 3 S 1015,8 0 0,0
03.08.2020 03:00:00 12,5 9,5 4 2 8 4 WNW 1016,2 0 0,0
03.08.2020 02:00:00 13,4 9,4 7 4 13 7 WSW 1016,4 0 0,0
03.08.2020 01:00:00 13,8 9,4 4 2 7 4 NNW 1016,4 0 0,0
03.08.2020 00:00:00 14,7 8,8 5 3 11 6 N 1016,5 0 0,0
02.08.2020 23:00:00 16,1 7,9 5 3 11 6 WNW 1016,6 0 0,0
02.08.2020 22:00:00 18,0 8,9 6 3 19 10 NW 1016,4 0 0,0
02.08.2020 21:00:00 19,2 9,4 12 7 29 16 NNW 1016,1 19 0,0
02.08.2020 20:00:00 20,5 9,5 11 6 23 13 NNW 1015,8 39 0,0
02.08.2020 19:00:00 21,5 10,0 12 7 26 14 NW 1015,5 54 0,0
02.08.2020 18:00:00 21,9 10,6 14 7 29 16 NW 1015,6 24 0,0
02.08.2020 17:00:00 22,3 10,7 13 7 29 16 WNW 1015,7 23 0,0
02.08.2020 16:00:00 22,1 11,0 14 8 30 16 NW 1015,8 26 0,0
02.08.2020 15:00:00 21,8 11,3 10 5 29 16 W 1016,1 18 0,0
02.08.2020 14:00:00 21,6 13,0 14 8 38 21 NW 1016,3 20 0,0
02.08.2020 13:00:00 21,4 12,9 9 5 28 15 W 1016,2 30 0,0
02.08.2020 12:00:00 19,9 13,8 6 3 15 8 W 1016,4 14 0,0
02.08.2020 11:00:00 17,8 14,2 7 4 20 11 W 1016,6 0 0,0
02.08.2020 10:00:00 16,6 13,7 9 5 19 11 WSW 1016,3 0 0,0
02.08.2020 09:00:00 15,9 13,5 8 5 26 14 SW 1016,2 0 0,0
02.08.2020 08:00:00 15,6 13,2 11 6 22 12 WSW 1015,9 0 0,0
02.08.2020 07:00:00 15,2 12,9 8 4 24 13 SW 1016,0 0 0,0
02.08.2020 06:00:00 15,4 12,6 6 4 18 10 SW 1016,0 0 0,0
02.08.2020 05:00:00 15,7 12,3 9 5 16 9 SSW 1016,1 0 0,0
02.08.2020 04:00:00 16,1 12,2 6 4 16 9 WSW 1016,1 0 0,0
02.08.2020 03:00:00 17,2 12,0 8 4 17 9 W 1016,3 0 0,0
02.08.2020 02:00:00 17,9 11,9 7 4 12 7 WSW 1016,6 0 0,0
02.08.2020 01:00:00 18,9 12,2 6 4 13 7 W 1016,7 0 0,0
02.08.2020 00:00:00 18,7 12,5 6 3 9 5 WSW 1016,5 0 0,0
01.08.2020 23:00:00 20,2 11,7 5 3 17 9 NW 1016,2 0 0,0
01.08.2020 22:00:00 21,3 12,9 8 4 20 11 NNW 1016,1 0 0,0
01.08.2020 21:00:00 22,7 13,3 13 7 25 13 NNW 1015,6 21 0,0
01.08.2020 20:00:00 23,9 14,2 14 8 24 13 NNW 1015,4 34 0,0
01.08.2020 19:00:00 25,3 14,3 7 4 25 14 W 1014,9 1 0,0
01.08.2020 18:00:00 26,2 14,0 13 7 26 14 WNW 1015,1 42 0,0
01.08.2020 17:00:00 25,9 14,8 11 6 24 13 NW 1015,1 21 0,0
01.08.2020 16:00:00 26,9 14,5 13 7 25 13 W 1015,2 48 0,0
01.08.2020 15:00:00 26,1 16,8 14 8 24 13 W 1015,5 22 0,0
01.08.2020 14:00:00 24,7 16,9 7 4 18 10 W 1015,9 19 0,0
01.08.2020 13:00:00 23,2 17,1 8 4 16 8 W 1016,1 1 0,0
01.08.2020 12:00:00 22,7 17,0 7 4 12 7 SSW 1016,2 3 0,0
01.08.2020 11:00:00 21,4 16,7 5 3 18 10 W 1016,0 0 0,0
01.08.2020 10:00:00 20,8 16,3 11 6 21 11 W 1015,5 41 0,0
01.08.2020 09:00:00 19,8 16,1 12 6 23 12 W 1014,8 41 0,0
01.08.2020 08:00:00 19,3 15,5 11 6 29 16 W 1014,5 0 0,0
01.08.2020 07:00:00 20,0 14,7 16 9 29 15 WSW 1014,2 0 0,0
01.08.2020 06:00:00 20,9 14,5 10 5 23 13 WSW 1013,8 0 0,0
01.08.2020 05:00:00 22,2 14,9 10 5 28 15 SW 1013,9 0 0,0
01.08.2020 04:00:00 23,7 15,5 10 5 19 11 SW 1013,8 0 0,0
01.08.2020 03:00:00 - - - - - - - - 0 -
01.08.2020 02:00:00 25,9 15,9 11 6 23 12 W 1013,3 0 0,0
01.08.2020 01:00:00 27,5 14,5 10 5 22 12 W 1012,7 0 0,0
01.08.2020 00:00:00 27,8 13,9 6 4 22 12 W 1012,0 0 0,0
31.07.2020 23:00:00 27,8 13,4 8 4 18 10 WSW 1012,1 0 0,0
31.07.2020 22:00:00 27,6 12,6 12 7 15 8 SSE 1011,6 0 0,0
31.07.2020 21:00:00 30,0 13,2 5 3 8 5 ESE 1011,3 0 0,0
31.07.2020 20:00:00 33,1 11,3 4 2 16 9 SE 1011,4 29 0,0
31.07.2020 19:00:00 35,9 7,8 9 5 27 14 S 1011,7 60 0,0
31.07.2020 18:00:00 36,3 7,1 13 7 31 17 SSW 1012,0 60 0,0
31.07.2020 17:00:00 36,3 8,0 10 5 31 17 SE 1012,2 60 0,0
31.07.2020 16:00:00 35,5 8,4 12 6 29 16 ESE 1012,7 60 0,0
31.07.2020 15:00:00 34,5 7,0 11 6 27 15 ESE 1013,2 60 0,0
31.07.2020 14:00:00 33,4 6,7 11 6 27 15 SE 1013,8 60 0,0
31.07.2020 13:00:00 32,4 7,2 19 10 28 15 SSE 1014,6 60 0,0
31.07.2020 12:00:00 30,1 10,5 12 7 22 12 ESE 1015,1 60 0,0
31.07.2020 11:00:00 27,6 11,3 9 5 19 10 ESE 1015,4 60 0,0
31.07.2020 10:00:00 24,9 10,0 9 5 19 11 ESE 1015,6 60 0,0
31.07.2020 09:00:00 21,4 10,3 8 4 16 9 ESE 1016,1 60 0,0
31.07.2020 08:00:00 18,2 9,7 7 4 18 10 E 1016,4 60 0,0
31.07.2020 07:00:00 17,3 9,0 10 6 19 10 E 1016,5 26 0,0
31.07.2020 06:00:00 17,2 8,9 9 5 18 10 E 1016,6 0 0,0
31.07.2020 05:00:00 17,5 8,9 10 5 18 10 E 1016,8 0 0,0
31.07.2020 04:00:00 18,2 8,8 9 5 19 11 E 1017,2 0 0,0
31.07.2020 03:00:00 19,4 8,8 9 5 21 11 E 1017,3 0 0,0
31.07.2020 02:00:00 20,0 8,9 11 6 22 12 E 1017,5 0 0,0
31.07.2020 01:00:00 20,3 9,1 9 5 21 12 E 1017,9 0 0,0
31.07.2020 00:00:00 21,0 9,6 11 6 18 10 E 1017,9 0 0,0
30.07.2020 23:00:00 21,1 10,1 8 5 16 8 E 1017,7 0 0,0
30.07.2020 22:00:00 23,2 9,9 8 4 18 10 ENE 1017,5 0 0,0
30.07.2020 21:00:00 26,1 8,4 6 4 15 8 E 1017,2 22 0,0
30.07.2020 20:00:00 27,8 7,8 7 4 14 7 E 1017,3 60 0,0
30.07.2020 19:00:00 28,2 7,9 6 4 14 8 E 1017,5 59 0,0
30.07.2020 18:00:00 28,2 7,7 9 5 19 11 SE 1018,1 53 0,0
30.07.2020 17:00:00 27,8 7,4 6 4 19 11 E 1018,6 60 0,0
30.07.2020 16:00:00 27,5 7,8 10 6 20 11 SE 1018,9 60 0,0
30.07.2020 15:00:00 26,8 7,3 9 5 17 9 SE 1019,2 60 0,0
30.07.2020 14:00:00 26,0 8,1 4 2 19 11 W 1019,7 60 0,0
30.07.2020 13:00:00 25,0 8,2 6 3 16 8 NE 1020,4 60 0,0
30.07.2020 12:00:00 24,1 9,5 6 3 18 10 SSE 1020,6 60 0,0
30.07.2020 11:00:00 22,5 10,2 7 4 14 8 SSE 1020,7 60 0,0
30.07.2020 10:00:00 20,1 10,4 5 3 12 7 SE 1020,8 60 0,0
30.07.2020 09:00:00 17,2 10,1 5 3 13 7 ESE 1021,0 60 0,0
30.07.2020 08:00:00 14,7 9,3 7 4 16 9 E 1021,0 60 0,0
30.07.2020 07:00:00 13,3 8,7 7 4 16 8 E 1021,0 24 0,0
30.07.2020 06:00:00 13,6 8,5 8 4 14 8 E 1020,8 0 0,0
30.07.2020 05:00:00 14,2 8,3 8 4 17 9 E 1020,8 0 0,0
30.07.2020 04:00:00 13,8 8,5 6 4 13 7 E 1020,9 0 0,0
30.07.2020 03:00:00 13,4 8,5 5 3 13 7 ESE 1021,2 0 0,0
30.07.2020 02:00:00 14,1 8,6 7 4 10 6 E 1021,3 0 0,0
30.07.2020 01:00:00 15,6 8,3 6 3 13 7 E 1021,1 0 0,0
30.07.2020 00:00:00 16,8 8,3 8 5 15 8 NE 1021,2 0 0,0
29.07.2020 23:00:00 17,7 8,3 10 5 21 12 N 1020,9 0 0,0
29.07.2020 22:00:00 18,8 8,6 13 7 22 12 N 1020,5 0 0,0
29.07.2020 21:00:00 20,5 9,3 11 6 23 12 N 1020,1 22 0,0
29.07.2020 20:00:00 22,0 8,0 7 4 16 8 WNW 1019,9 60 0,0
29.07.2020 19:00:00 22,3 8,1 6 4 18 10 W 1019,9 59 0,0
29.07.2020 18:00:00 22,4 8,0 9 5 20 11 W 1020,2 58 0,0
29.07.2020 17:00:00 22,2 8,0 11 6 25 13 W 1020,4 51 0,0
29.07.2020 16:00:00 21,7 7,7 12 7 22 12 WSW 1020,6 60 0,0
29.07.2020 15:00:00 20,8 6,9 8 4 23 13 W 1020,8 55 0,0
29.07.2020 14:00:00 20,6 7,4 11 6 25 13 WSW 1021,3 39 0,0
29.07.2020 13:00:00 18,9 7,8 10 5 20 11 W 1021,6 19 0,0
29.07.2020 12:00:00 18,7 7,2 8 5 21 11 W 1021,4 35 0,0
29.07.2020 11:00:00 18,1 7,0 9 5 16 9 W 1021,4 60 0,0
29.07.2020 10:00:00 16,5 10,2 6 3 11 6 SSW 1021,3 60 0,0
29.07.2020 09:00:00 14,4 11,1 5 3 11 6 SW 1020,9 60 0,0
29.07.2020 08:00:00 12,5 10,8 4 2 10 5 SW 1020,6 58 0,0
29.07.2020 07:00:00 11,5 10,3 6 3 9 5 SSW 1020,2 19 0,0
29.07.2020 06:00:00 11,4 9,9 5 3 9 5 SSW 1019,5 0 0,0
29.07.2020 05:00:00 12,2 10,2 6 3 12 7 WSW 1019,2 0 0,0
29.07.2020 04:00:00 12,9 10,3 8 4 12 6 SSW 1019,0 0 0,0
29.07.2020 03:00:00 13,8 10,2 5 3 13 7 SW 1018,9 0 0,0
29.07.2020 02:00:00 14,5 9,8 7 4 15 8 SW 1018,9 0 0,0
29.07.2020 01:00:00 15,3 9,5 9 5 19 11 WSW 1018,8 0 0,0

tt = temperature
td = dewpoint
ff = wind speed
fx = gusts
dd = wind direction
ppp = reduced air pressure
sd = sunshine duration
rr = precipitation

Next stations